Maple Plain, MN (55348)

4:54 PM CDT on July 26, 2016 (GMT -0500)
APRSWXNET | | Change Station

Elev 925 ft 44.83 °N, 93.39 °W | Updated 25 minutes ago

Clear
Clear
87 °F
Feels Like 90 °F
N
11
Wind Variable Wind from South
Gusts 0.0 mph

Today
High -- | Low -- °F
--% Chance of Precip.
Yesterday
High -- | Low -- °F
Precip. -- in
Pressure 29.96 in
Visibility 10.0 miles
Clouds Clear
Heat Index 90 °F
Dew Point 67 °F
Humidity 51%
Rainfall in
Snow Depth Not available.
5:53 AM 8:46 PM
Waning Gibbous, 50% visible
METAR KFCM 262053Z 22012G21KT 10SM CLR 32/19 A2998 RMK AO2 SLP145 T03170194 56015
Pressure 29.96 in
Visibility 10.0 miles
Clouds Clear
Heat Index 90 °F
Dew Point 67 °F
Humidity 51%
Rainfall in
Snow Depth Not available.
5:53 AM 8:46 PM
Waning Gibbous, 50% visible
METAR KFCM 262053Z 22012G21KT 10SM CLR 32/19 A2998 RMK AO2 SLP145 T03170194 56015

10-Day Weather Forecast

Almanac

Astronomy

Jul. 26, 2016 Rise Set
Actual Time
Civil Twilight
Nautical Twilight
Astronomical Twilight
Moon
Length of Visible Light
Length of Day
Tomorrow will be .
, % of the Moon is Illuminated

Today's Extremes

State Highs State Lows

Community

WunderPhotos

Upload Photos

1,927,702 photos uploaded!

WunderBlog® & News

Nearby

Air Quality

  Air Quality AQ Index Pollutant
Not available.

Snow Depth

Station Depth Elevation

Earthquake Activity

City Distance Mag. Time & Date
Minimum magnitude displayed is 2.5.

Coastal Water Temperatures

Place Temperature

Stations

Nearby Weather Stations

Station Location Temp. Windchill Dew Point Humidity Wind Precip. Elev Updated Type
                   

Watches & Warnings

There are currently no watches in effect.